createdAt,value
2023-01-19T00:00:53.287Z,10.48
2023-01-19T00:03:20.511Z,10.07
2023-01-19T00:05:47.136Z,10.15
2023-01-19T00:08:17.573Z,10.93
2023-01-19T00:10:47.569Z,10.85
2023-01-19T00:13:15.176Z,11.35
2023-01-19T00:15:41.774Z,10.80
2023-01-19T00:18:10.622Z,11.40
2023-01-19T00:20:38.853Z,12.00
2023-01-19T00:23:07.571Z,11.27
2023-01-19T00:25:34.363Z,10.82
2023-01-19T00:28:02.008Z,9.68
2023-01-19T00:30:29.304Z,9.60
2023-01-19T00:32:56.114Z,9.95
2023-01-19T00:35:22.938Z,9.82
2023-01-19T00:37:51.499Z,10.30
2023-01-19T00:40:18.580Z,9.50
2023-01-19T00:42:45.603Z,8.98
2023-01-19T00:45:15.097Z,9.63
2023-01-19T00:47:42.470Z,8.55
2023-01-19T00:50:11.820Z,8.48
2023-01-19T00:52:40.175Z,9.13
2023-01-19T00:55:09.245Z,8.73
2023-01-19T00:57:36.189Z,9.27
2023-01-19T01:00:07.417Z,9.20
2023-01-19T01:02:34.507Z,9.52
2023-01-19T01:05:02.911Z,9.77
2023-01-19T01:07:30.628Z,10.45
2023-01-19T01:09:57.409Z,8.45
2023-01-19T01:12:24.700Z,8.93
2023-01-19T01:14:51.197Z,7.95
2023-01-19T01:17:17.893Z,9.20
2023-01-19T01:19:44.397Z,8.50
2023-01-19T01:22:11.015Z,7.65
2023-01-19T01:24:38.194Z,9.00
2023-01-19T01:27:05.626Z,9.50
2023-01-19T01:29:35.311Z,8.20
2023-01-19T01:32:02.257Z,8.73
2023-01-19T01:34:28.869Z,8.30
2023-01-19T01:36:55.533Z,7.40
2023-01-19T01:39:22.317Z,7.80
2023-01-19T01:41:49.503Z,6.95
2023-01-19T01:44:50.207Z,6.70
2023-01-19T01:47:38.742Z,6.78
2023-01-19T01:50:14.890Z,5.75
2023-01-19T01:53:08.404Z,6.53
2023-01-19T01:55:40.646Z,6.60
2023-01-19T01:58:09.937Z,6.60
2023-01-19T02:00:57.620Z,6.35
2023-01-19T02:03:25.830Z,6.50
2023-01-19T02:05:57.682Z,6.15
2023-01-19T02:08:57.804Z,6.45
2023-01-19T02:11:44.519Z,6.75
2023-01-19T02:14:11.397Z,6.05
2023-01-19T02:16:38.508Z,7.63
2023-01-19T02:19:08.826Z,7.18
2023-01-19T02:21:54.457Z,7.90
2023-01-19T02:24:21.657Z,7.05
2023-01-19T02:26:49.179Z,7.10
2023-01-19T02:29:22.885Z,7.32
2023-01-19T02:31:52.729Z,7.50
2023-01-19T02:34:21.401Z,6.97
2023-01-19T02:37:06.766Z,6.40
2023-01-19T02:40:05.237Z,5.05
2023-01-19T02:42:43.683Z,6.78
2023-01-19T02:45:14.565Z,6.80
2023-01-19T02:47:47.307Z,7.40
2023-01-19T02:50:37.056Z,7.03
2023-01-19T02:53:41.954Z,5.85
2023-01-19T02:56:41.372Z,6.00
2023-01-19T02:59:44.926Z,5.93
2023-01-19T03:02:29.592Z,5.90
2023-01-19T03:05:24.079Z,6.43
2023-01-19T03:08:16.212Z,5.57
2023-01-19T03:11:01.723Z,5.53
2023-01-19T03:13:50.161Z,5.53
2023-01-19T03:16:23.010Z,5.72
2023-01-19T03:18:55.419Z,6.40
2023-01-19T03:21:28.265Z,4.72
2023-01-19T03:24:02.136Z,5.37
2023-01-19T03:29:01.662Z,5.20
2023-01-19T03:31:31.699Z,5.53
2023-01-19T03:34:03.376Z,6.00
2023-01-19T03:36:35.087Z,6.03
2023-01-19T03:39:04.044Z,5.72
2023-01-19T03:41:34.389Z,5.50
2023-01-19T03:44:02.600Z,5.75
2023-01-19T03:46:31.208Z,5.35
2023-01-19T03:49:00.021Z,5.10
2023-01-19T03:51:27.271Z,5.07
2023-01-19T03:53:54.001Z,3.55
2023-01-19T03:56:25.551Z,4.35
2023-01-19T03:58:52.676Z,4.30
2023-01-19T04:01:23.384Z,4.07
2023-01-19T04:03:50.923Z,3.22
2023-01-19T04:06:19.163Z,3.17
2023-01-19T04:08:49.231Z,2.22
2023-01-19T04:11:16.173Z,2.22
2023-01-19T04:13:43.513Z,2.00
2023-01-19T04:16:11.106Z,1.48
2023-01-19T04:18:38.037Z,1.50
2023-01-19T04:21:07.410Z,1.30
2023-01-19T04:23:34.288Z,1.48
2023-01-19T04:26:03.902Z,2.13
2023-01-19T04:28:31.630Z,1.80
2023-01-19T04:30:58.537Z,2.28
2023-01-19T04:33:26.640Z,2.10
2023-01-19T04:35:54.585Z,2.42
2023-01-19T04:38:22.909Z,2.22
2023-01-19T04:40:53.264Z,2.50
2023-01-19T04:43:24.037Z,2.60
2023-01-19T04:45:51.243Z,2.95
2023-01-19T04:48:19.088Z,3.25
2023-01-19T04:50:46.454Z,2.90
2023-01-19T04:53:13.943Z,2.95
2023-01-19T04:55:41.073Z,2.72
2023-01-19T04:58:08.028Z,3.50
2023-01-19T05:00:35.056Z,3.28
2023-01-19T05:03:02.289Z,3.38
2023-01-19T05:05:29.867Z,3.55
2023-01-19T05:07:56.548Z,3.90
2023-01-19T05:10:23.981Z,4.05
2023-01-19T05:12:51.333Z,4.07
2023-01-19T05:15:19.110Z,3.70
2023-01-19T05:17:45.802Z,3.88
2023-01-19T05:20:16.025Z,4.25
2023-01-19T05:22:50.806Z,3.88
2023-01-19T05:25:18.140Z,3.80
2023-01-19T05:27:46.680Z,4.03
2023-01-19T05:30:14.232Z,3.92
2023-01-19T05:32:41.139Z,4.10
2023-01-19T05:35:08.857Z,3.78
2023-01-19T05:37:35.526Z,3.33
2023-01-19T05:40:02.205Z,3.42
2023-01-19T05:42:29.555Z,2.67
2023-01-19T05:44:59.462Z,2.20
2023-01-19T05:47:29.375Z,2.53
2023-01-19T05:49:56.046Z,2.30
2023-01-19T05:52:22.837Z,2.25
2023-01-19T05:54:51.877Z,2.35
2023-01-19T05:57:19.941Z,2.13
2023-01-19T05:59:46.971Z,2.50
2023-01-19T06:02:13.850Z,2.38
2023-01-19T06:04:41.836Z,2.75
2023-01-19T06:07:08.409Z,3.38
2023-01-19T06:09:35.066Z,3.65
2023-01-19T06:12:01.715Z,4.13
2023-01-19T06:14:28.427Z,4.70
2023-01-19T06:16:55.035Z,5.07
2023-01-19T06:19:21.887Z,6.18
2023-01-19T06:21:52.436Z,5.88
2023-01-19T06:24:20.041Z,7.50
2023-01-19T06:26:47.034Z,8.23
2023-01-19T06:29:14.514Z,8.05
2023-01-19T06:31:42.122Z,9.50
2023-01-19T06:34:09.488Z,9.30
2023-01-19T06:36:36.596Z,9.55
2023-01-19T06:39:05.858Z,8.93
2023-01-19T06:41:33.946Z,10.93
2023-01-19T06:44:01.240Z,10.18
2023-01-19T06:46:28.231Z,8.52
2023-01-19T06:48:56.592Z,10.98
2023-01-19T06:51:23.986Z,10.07
2023-01-19T06:53:50.946Z,10.52
2023-01-19T06:56:19.623Z,11.88
2023-01-19T06:58:48.920Z,12.38
2023-01-19T07:01:15.778Z,13.07
2023-01-19T07:03:42.624Z,14.43
2023-01-19T07:06:09.568Z,14.50
2023-01-19T07:08:37.254Z,15.68
2023-01-19T07:11:26.732Z,15.63
2023-01-19T07:13:55.423Z,15.63
2023-01-19T07:16:22.110Z,13.65
2023-01-19T07:18:50.300Z,16.05
2023-01-19T07:21:19.474Z,14.73
2023-01-19T07:23:51.574Z,14.35
2023-01-19T07:26:21.183Z,14.40
2023-01-19T07:28:48.973Z,14.80
2023-01-19T07:31:17.185Z,15.10
2023-01-19T07:33:45.062Z,14.07
2023-01-19T07:36:12.540Z,13.30
2023-01-19T07:38:39.534Z,11.98
2023-01-19T07:41:09.462Z,11.50
2023-01-19T07:43:36.407Z,12.75
2023-01-19T07:46:05.804Z,12.98
2023-01-19T07:48:32.560Z,12.05
2023-01-19T07:51:01.495Z,12.05
2023-01-19T07:53:29.819Z,12.40
2023-01-19T07:55:57.464Z,12.40
2023-01-19T07:58:24.701Z,12.00
2023-01-19T08:00:51.573Z,12.25
2023-01-19T08:03:18.754Z,11.32
2023-01-19T08:05:45.519Z,11.80
2023-01-19T08:08:12.725Z,10.50
2023-01-19T08:10:39.670Z,11.30
2023-01-19T08:13:06.451Z,12.27
2023-01-19T08:15:33.244Z,14.30
2023-01-19T08:18:02.133Z,12.45
2023-01-19T08:20:30.091Z,12.95
2023-01-19T08:23:00.277Z,14.00
2023-01-19T08:25:33.261Z,11.98
2023-01-19T08:28:00.339Z,13.82
2023-01-19T08:30:27.127Z,14.32
2023-01-19T08:32:54.587Z,15.50
2023-01-19T08:35:22.555Z,15.70
2023-01-19T08:37:51.042Z,16.38
2023-01-19T08:40:18.503Z,17.40
2023-01-19T08:42:45.626Z,18.23
2023-01-19T08:45:12.339Z,20.20
2023-01-19T08:47:39.058Z,17.25
2023-01-19T08:50:06.303Z,17.48
2023-01-19T08:52:34.054Z,18.27
2023-01-19T08:55:00.739Z,17.77
2023-01-19T08:57:28.087Z,17.92
2023-01-19T08:59:54.630Z,17.48
2023-01-19T09:02:21.277Z,15.35
2023-01-19T09:04:50.316Z,16.70
2023-01-19T09:07:19.215Z,15.25
2023-01-19T09:09:46.189Z,16.10
2023-01-19T09:12:12.941Z,15.05
2023-01-19T09:14:39.489Z,14.45
2023-01-19T09:17:06.514Z,14.38
2023-01-19T09:19:35.028Z,12.00
2023-01-19T09:22:01.785Z,13.02
2023-01-19T09:24:28.735Z,13.27
2023-01-19T09:26:55.668Z,11.38
2023-01-19T09:29:22.807Z,12.43
2023-01-19T09:31:49.730Z,11.65
2023-01-19T09:34:16.407Z,11.90
2023-01-19T09:36:43.032Z,12.50
2023-01-19T09:39:11.011Z,11.50
2023-01-19T09:41:42.069Z,11.77
2023-01-19T09:44:17.031Z,12.68
2023-01-19T09:46:43.815Z,12.23
2023-01-19T09:49:26.765Z,12.05
2023-01-19T09:51:53.604Z,11.13
2023-01-19T09:54:35.761Z,13.20
2023-01-19T09:57:02.821Z,10.13
2023-01-19T09:59:31.119Z,10.25
2023-01-19T10:02:03.807Z,11.63
2023-01-19T10:04:40.149Z,12.98
2023-01-19T10:07:28.084Z,10.82
2023-01-19T10:10:12.624Z,10.95
2023-01-19T10:12:44.569Z,11.38
2023-01-19T10:15:24.560Z,10.82
2023-01-19T10:18:08.687Z,10.88
2023-01-19T10:23:14.602Z,10.27
2023-01-19T10:25:41.554Z,11.73
2023-01-19T10:28:08.887Z,11.27
2023-01-19T10:30:35.589Z,11.80
2023-01-19T10:33:02.678Z,12.07
2023-01-19T10:35:30.176Z,11.98
2023-01-19T10:38:01.700Z,12.77
2023-01-19T10:40:51.924Z,12.05
2023-01-19T10:43:52.747Z,11.10
2023-01-19T10:46:34.216Z,12.55
2023-01-19T10:49:01.785Z,12.25
2023-01-19T10:51:28.665Z,12.25
2023-01-19T10:53:57.267Z,13.65
2023-01-19T10:56:33.479Z,13.82
2023-01-19T10:59:02.525Z,13.50
2023-01-19T11:01:31.150Z,14.05
2023-01-19T11:04:05.638Z,12.93
2023-01-19T11:06:34.259Z,12.63
2023-01-19T11:09:21.380Z,12.73
2023-01-19T11:11:51.504Z,11.82
2023-01-19T11:14:21.932Z,12.07
2023-01-19T11:16:57.087Z,12.88
2023-01-19T11:19:31.077Z,14.48
2023-01-19T11:22:24.841Z,12.43
2023-01-19T11:24:52.265Z,12.65
2023-01-19T11:27:22.403Z,13.30
2023-01-19T11:29:57.343Z,12.02
2023-01-19T11:32:28.177Z,12.93
2023-01-19T11:34:54.864Z,12.98
2023-01-19T11:37:21.475Z,12.10
2023-01-19T11:40:08.497Z,12.70
2023-01-19T11:42:37.278Z,12.98
2023-01-19T11:45:12.363Z,12.73
2023-01-19T11:47:50.049Z,11.60
2023-01-19T11:50:36.449Z,12.73
2023-01-19T11:53:17.538Z,12.43
2023-01-19T11:55:51.342Z,12.75
2023-01-19T11:58:19.982Z,11.85
2023-01-19T12:00:54.202Z,12.73
2023-01-19T12:03:33.008Z,11.48
2023-01-19T12:06:37.221Z,11.40
2023-01-19T12:09:06.911Z,10.38
2023-01-19T12:11:44.229Z,10.13
2023-01-19T12:14:20.344Z,12.30
2023-01-19T12:16:49.277Z,10.82
2023-01-19T12:19:22.332Z,10.30
2023-01-19T12:21:50.222Z,10.23
2023-01-19T12:24:26.489Z,10.40
2023-01-19T12:26:57.410Z,10.93
2023-01-19T12:29:27.972Z,10.85
2023-01-19T12:32:34.418Z,11.18
2023-01-19T12:35:02.492Z,11.25
2023-01-19T12:37:40.286Z,10.55
2023-01-19T12:40:22.149Z,10.98
2023-01-19T12:43:05.895Z,10.55
2023-01-19T12:45:34.917Z,11.70
2023-01-19T12:48:04.295Z,10.77
2023-01-19T12:50:37.766Z,10.98
2023-01-19T12:53:21.195Z,10.93
2023-01-19T12:55:59.828Z,11.23
2023-01-19T12:58:27.348Z,12.68
2023-01-19T13:01:21.891Z,13.13
2023-01-19T13:04:09.654Z,14.18
2023-01-19T13:06:48.301Z,13.68
2023-01-19T13:09:37.025Z,12.45
2023-01-19T13:12:25.625Z,13.45
2023-01-19T13:15:28.841Z,14.60
2023-01-19T13:17:56.749Z,13.13
2023-01-19T13:20:27.486Z,14.88
2023-01-19T13:23:19.188Z,13.88
2023-01-19T13:25:58.824Z,13.32
2023-01-19T13:28:36.249Z,14.70
2023-01-19T13:31:03.861Z,13.50
2023-01-19T13:33:40.848Z,14.32
2023-01-19T13:36:19.950Z,13.88
2023-01-19T13:38:51.234Z,14.85
2023-01-19T13:41:21.976Z,14.95
2023-01-19T13:43:59.914Z,16.40
2023-01-19T13:46:28.457Z,16.13
2023-01-19T13:49:04.440Z,15.80
2023-01-19T13:51:32.031Z,16.10
2023-01-19T13:54:01.716Z,16.58
2023-01-19T13:56:30.256Z,15.75
2023-01-19T13:59:02.280Z,16.98
2023-01-19T14:01:30.930Z,16.88
2023-01-19T14:03:57.865Z,16.92
2023-01-19T14:06:38.655Z,17.98
2023-01-19T14:09:22.434Z,17.23
2023-01-19T14:12:11.106Z,18.17
2023-01-19T14:14:38.211Z,15.38
2023-01-19T14:17:29.868Z,18.20
2023-01-19T14:19:58.468Z,16.77
2023-01-19T14:22:45.563Z,18.92
2023-01-19T14:25:36.971Z,19.83
2023-01-19T14:28:43.597Z,18.42
2023-01-19T14:31:27.581Z,19.58
2023-01-19T14:33:58.454Z,17.52
2023-01-19T14:36:28.800Z,20.95
2023-01-19T14:38:59.603Z,21.13
2023-01-19T14:41:43.774Z,18.80
2023-01-19T14:44:16.593Z,19.25
2023-01-19T14:46:48.536Z,18.93
2023-01-19T14:51:51.197Z,18.30
2023-01-19T14:54:29.477Z,19.42
2023-01-19T14:56:56.245Z,18.05
2023-01-19T14:59:22.857Z,17.67
2023-01-19T15:01:52.249Z,17.02
2023-01-19T15:04:19.137Z,17.70
2023-01-19T15:06:47.216Z,17.80
2023-01-19T15:09:15.418Z,17.50
2023-01-19T15:11:43.515Z,17.85
2023-01-19T15:14:14.589Z,18.40
2023-01-19T15:16:42.780Z,18.42
2023-01-19T15:19:12.554Z,17.80
2023-01-19T15:21:42.185Z,19.83
2023-01-19T15:24:10.603Z,19.23
2023-01-19T15:26:40.500Z,19.73
2023-01-19T15:29:20.218Z,19.92
2023-01-19T15:31:47.223Z,19.40
2023-01-19T15:34:14.677Z,18.23
2023-01-19T15:36:42.559Z,18.20
2023-01-19T15:39:13.524Z,18.52
2023-01-19T15:41:40.513Z,18.02
2023-01-19T15:44:08.545Z,16.73
2023-01-19T15:46:35.181Z,16.88
2023-01-19T15:49:01.826Z,17.80
2023-01-19T15:51:28.669Z,16.25
2023-01-19T15:53:55.564Z,17.02
2023-01-19T15:56:28.208Z,17.48
2023-01-19T15:58:55.813Z,17.55
2023-01-19T16:01:31.325Z,17.25
2023-01-19T16:04:01.009Z,17.02
2023-01-19T16:06:28.785Z,17.05
2023-01-19T16:08:59.755Z,17.38
2023-01-19T16:11:31.004Z,17.75
2023-01-19T16:13:58.241Z,16.90
2023-01-19T16:16:27.891Z,16.85
2023-01-19T16:18:55.335Z,17.25
2023-01-19T16:21:22.314Z,16.65
2023-01-19T16:23:49.269Z,17.17
2023-01-19T16:26:34.382Z,20.92
2023-01-19T16:29:09.029Z,18.50
2023-01-19T16:31:40.949Z,17.38
2023-01-19T16:34:10.235Z,17.58
2023-01-19T16:36:40.300Z,17.42
2023-01-19T16:39:10.565Z,17.15
2023-01-19T16:41:37.729Z,18.27
2023-01-19T16:44:05.637Z,17.40
2023-01-19T16:46:35.616Z,15.45
2023-01-19T16:49:10.306Z,17.83
2023-01-19T16:51:37.679Z,16.52
2023-01-19T16:54:04.635Z,17.33
2023-01-19T16:56:31.831Z,19.25
2023-01-19T16:58:59.565Z,17.95
2023-01-19T17:01:28.744Z,16.35
2023-01-19T17:03:56.504Z,14.27
2023-01-19T17:06:24.536Z,19.50
2023-01-19T17:08:53.070Z,17.98
2023-01-19T17:11:28.377Z,19.00
2023-01-19T17:13:57.711Z,18.13
2023-01-19T17:16:25.247Z,17.35
2023-01-19T17:18:52.487Z,18.08
2023-01-19T17:21:20.278Z,19.08
2023-01-19T17:23:52.242Z,18.52
2023-01-19T17:26:20.194Z,19.30
2023-01-19T17:28:47.074Z,18.45
2023-01-19T17:31:20.415Z,20.02
2023-01-19T17:33:50.861Z,18.75
2023-01-19T17:36:22.256Z,18.33
2023-01-19T17:38:50.357Z,17.83
2023-01-19T17:41:22.600Z,18.95
2023-01-19T17:43:51.277Z,17.85
2023-01-19T17:46:20.318Z,20.05
2023-01-19T17:49:01.992Z,20.30
2023-01-19T17:51:31.883Z,19.30
2023-01-19T17:53:59.477Z,18.25
2023-01-19T17:56:29.886Z,18.65
2023-01-19T17:58:58.095Z,18.33
2023-01-19T18:01:27.934Z,17.10
2023-01-19T18:03:55.032Z,19.27
2023-01-19T18:06:22.630Z,18.92
2023-01-19T18:08:50.465Z,18.75
2023-01-19T18:11:21.164Z,27.75
2023-01-19T18:13:50.639Z,19.17
2023-01-19T18:16:23.011Z,18.20
2023-01-19T18:18:53.537Z,18.25
2023-01-19T18:21:22.248Z,18.10
2023-01-19T18:23:50.364Z,17.30
2023-01-19T18:26:20.539Z,16.52
2023-01-19T18:28:50.885Z,17.13
2023-01-19T18:31:20.008Z,17.90
2023-01-19T18:33:49.206Z,18.75
2023-01-19T18:36:16.657Z,17.75
2023-01-19T18:38:43.471Z,18.80
2023-01-19T18:41:15.744Z,16.92
2023-01-19T18:43:43.339Z,17.70
2023-01-19T18:46:10.644Z,18.80
2023-01-19T18:48:40.583Z,18.58
2023-01-19T18:51:12.730Z,17.63
2023-01-19T18:53:40.127Z,17.17
2023-01-19T18:56:07.552Z,17.45
2023-01-19T18:58:37.451Z,17.73
2023-01-19T19:01:05.754Z,17.92
2023-01-19T19:03:32.628Z,17.85
2023-01-19T19:06:03.508Z,18.73
2023-01-19T19:08:30.657Z,21.08
2023-01-19T19:10:57.430Z,19.85
2023-01-19T19:13:24.359Z,20.25
2023-01-19T19:15:52.615Z,20.13
2023-01-19T19:18:21.052Z,20.98
2023-01-19T19:20:48.975Z,19.15
2023-01-19T19:23:15.936Z,19.60
2023-01-19T19:25:42.554Z,17.98
2023-01-19T19:28:09.295Z,18.73
2023-01-19T19:30:37.935Z,18.98
2023-01-19T19:33:05.419Z,17.63
2023-01-19T19:35:32.207Z,18.17
2023-01-19T19:38:01.664Z,17.08
2023-01-19T19:40:29.293Z,18.38
2023-01-19T19:42:58.738Z,17.73
2023-01-19T19:45:29.155Z,18.50
2023-01-19T19:47:57.547Z,19.25
2023-01-19T19:50:24.191Z,17.70
2023-01-19T19:52:50.758Z,18.08
2023-01-19T19:55:17.474Z,17.92
2023-01-19T19:57:44.215Z,16.52
2023-01-19T20:00:11.624Z,19.20
2023-01-19T20:02:38.686Z,18.15
2023-01-19T20:05:06.974Z,18.42
2023-01-19T20:07:33.942Z,15.20
2023-01-19T20:10:00.733Z,18.50
2023-01-19T20:12:27.691Z,18.58
2023-01-19T20:14:54.220Z,18.70
2023-01-19T20:17:20.987Z,17.75
2023-01-19T20:19:51.259Z,15.93
2023-01-19T20:22:18.042Z,16.98
2023-01-19T20:24:45.676Z,18.42
2023-01-19T20:27:12.626Z,18.73
2023-01-19T20:29:39.422Z,19.40
2023-01-19T20:32:06.106Z,19.83
2023-01-19T20:34:33.878Z,24.52
2023-01-19T20:37:01.776Z,17.90
2023-01-19T20:39:33.391Z,20.75
2023-01-19T20:42:00.799Z,20.83
2023-01-19T20:44:27.404Z,22.38
2023-01-19T20:46:55.821Z,21.08
2023-01-19T20:49:23.035Z,22.20
2023-01-19T20:51:52.097Z,22.95
2023-01-19T20:54:26.360Z,23.40
2023-01-19T20:56:53.249Z,23.10
2023-01-19T20:59:23.942Z,22.95
2023-01-19T21:01:50.678Z,23.33
2023-01-19T21:04:17.843Z,23.67
2023-01-19T21:06:44.810Z,24.30
2023-01-19T21:09:12.783Z,21.42
2023-01-19T21:11:39.769Z,22.50
2023-01-19T21:14:07.203Z,21.40
2023-01-19T21:16:35.086Z,22.55
2023-01-19T21:19:02.133Z,20.83
2023-01-19T21:21:31.225Z,21.60
2023-01-19T21:24:01.350Z,22.58
2023-01-19T21:26:31.512Z,22.55
2023-01-19T21:28:58.896Z,20.83
2023-01-19T21:31:27.799Z,22.48
2023-01-19T21:33:55.473Z,22.85
2023-01-19T21:36:22.974Z,23.52
2023-01-19T21:38:52.783Z,22.63
2023-01-19T21:41:22.520Z,23.45
2023-01-19T21:43:52.015Z,22.17
2023-01-19T21:46:22.321Z,22.48
2023-01-19T21:48:49.849Z,23.25
2023-01-19T21:51:16.862Z,22.73
2023-01-19T21:53:43.430Z,23.50
2023-01-19T21:56:11.195Z,22.08
2023-01-19T21:58:38.537Z,26.80
2023-01-19T22:01:11.151Z,25.08
2023-01-19T22:03:37.992Z,22.73
2023-01-19T22:06:09.127Z,23.88
2023-01-19T22:08:36.311Z,24.88
2023-01-19T22:11:10.588Z,24.48
2023-01-19T22:13:41.369Z,25.58
2023-01-19T22:16:11.188Z,24.13
2023-01-19T22:18:39.160Z,24.48
2023-01-19T22:21:10.080Z,24.10
2023-01-19T22:23:37.289Z,24.00
2023-01-19T22:26:04.336Z,26.75
2023-01-19T22:28:31.663Z,25.77
2023-01-19T22:31:08.398Z,23.60
2023-01-19T22:33:36.107Z,23.80
2023-01-19T22:36:20.381Z,22.15
2023-01-19T22:38:58.854Z,19.67
2023-01-19T22:41:25.423Z,19.25
2023-01-19T22:43:57.370Z,21.63
2023-01-19T22:46:26.714Z,20.25
2023-01-19T22:48:54.806Z,21.55
2023-01-19T22:51:23.235Z,19.65
2023-01-19T22:53:53.113Z,18.73
2023-01-19T22:56:23.444Z,18.25
2023-01-19T22:58:51.214Z,19.10
2023-01-19T23:01:21.209Z,18.25
2023-01-19T23:03:48.482Z,18.20
2023-01-19T23:06:18.289Z,16.10
2023-01-19T23:08:45.394Z,16.52
2023-01-19T23:11:22.407Z,19.42
2023-01-19T23:13:50.772Z,14.70
2023-01-19T23:16:17.624Z,12.82
2023-01-19T23:18:45.228Z,15.10
2023-01-19T23:21:18.338Z,14.15
2023-01-19T23:23:45.935Z,13.75
2023-01-19T23:26:13.797Z,14.38
2023-01-19T23:28:41.436Z,16.05
2023-01-19T23:31:23.350Z,14.63
2023-01-19T23:33:54.119Z,15.32
2023-01-19T23:36:22.531Z,15.13
2023-01-19T23:38:55.111Z,16.92
2023-01-19T23:41:22.716Z,17.23
2023-01-19T23:43:50.202Z,18.92
2023-01-19T23:46:18.970Z,17.60
2023-01-19T23:48:45.771Z,13.25
2023-01-19T23:51:19.057Z,17.65
2023-01-19T23:53:46.415Z,18.58
2023-01-19T23:56:23.909Z,18.23
2023-01-19T23:59:06.429Z,18.30
